sensor_id;sensor_type;location;lat;lon;timestamp;pressure;altitude;pressure_sealevel;temperature;humidity
69187;BME280;56301;56.864;60.554;2023-07-13T00:00:41;97808.81;;;25.18;49.07
69187;BME280;56301;56.864;60.554;2023-07-13T00:03:04;97809.47;;;25.14;49.24
69187;BME280;56301;56.864;60.554;2023-07-13T00:05:27;97809.47;;;25.20;49.47
69187;BME280;56301;56.864;60.554;2023-07-13T00:07:50;97813.81;;;25.21;49.00
69187;BME280;56301;56.864;60.554;2023-07-13T00:10:12;97817.56;;;25.20;48.67
69187;BME280;56301;56.864;60.554;2023-07-13T00:12:36;97825.06;;;25.18;49.73
69187;BME280;56301;56.864;60.554;2023-07-13T00:15:00;97822.13;;;25.20;49.51
69187;BME280;56301;56.864;60.554;2023-07-13T00:17:23;97820.47;;;25.12;48.79
69187;BME280;56301;56.864;60.554;2023-07-13T00:19:45;97820.47;;;25.12;49.33
69187;BME280;56301;56.864;60.554;2023-07-13T00:22:08;97827.53;;;25.20;49.90
69187;BME280;56301;56.864;60.554;2023-07-13T00:24:30;97833.81;;;25.14;48.74
69187;BME280;56301;56.864;60.554;2023-07-13T00:26:53;97821.75;;;25.16;49.02
69187;BME280;56301;56.864;60.554;2023-07-13T00:29:15;97820.06;;;25.15;49.14
69187;BME280;56301;56.864;60.554;2023-07-13T00:31:37;97826.72;;;25.19;49.34
69187;BME280;56301;56.864;60.554;2023-07-13T00:34:01;97824.44;;;25.23;48.34
69187;BME280;56301;56.864;60.554;2023-07-13T00:36:23;97829.00;;;25.23;48.89
69187;BME280;56301;56.864;60.554;2023-07-13T00:38:46;97820.06;;;25.15;49.33
69187;BME280;56301;56.864;60.554;2023-07-13T00:41:09;97825.47;;;25.15;49.06
69187;BME280;56301;56.864;60.554;2023-07-13T00:43:32;97828.41;;;25.20;48.71
69187;BME280;56301;56.864;60.554;2023-07-13T00:46:11;97828.59;;;25.19;49.16
69187;BME280;56301;56.864;60.554;2023-07-13T00:48:34;97829.44;;;25.19;48.82
69187;BME280;56301;56.864;60.554;2023-07-13T00:50:58;97830.69;;;25.17;48.90
69187;BME280;56301;56.864;60.554;2023-07-13T00:53:22;97834.66;;;25.21;49.00
69187;BME280;56301;56.864;60.554;2023-07-13T00:55:49;97840.88;;;25.21;48.46
69187;BME280;56301;56.864;60.554;2023-07-13T00:58:12;97839.41;;;25.19;49.16
69187;BME280;56301;56.864;60.554;2023-07-13T01:00:35;97844.66;;;25.20;48.31
69187;BME280;56301;56.864;60.554;2023-07-13T01:03:00;97844.66;;;25.20;48.06
69187;BME280;56301;56.864;60.554;2023-07-13T01:05:22;97843.59;;;25.21;48.73
69187;BME280;56301;56.864;60.554;2023-07-13T01:07:45;97853.78;;;25.19;48.47
69187;BME280;56301;56.864;60.554;2023-07-13T01:10:10;97858.78;;;25.23;48.04
69187;BME280;56301;56.864;60.554;2023-07-13T01:12:32;97856.91;;;25.23;47.96
69187;BME280;56301;56.864;60.554;2023-07-13T01:14:58;97863.38;;;25.22;47.89
69187;BME280;56301;56.864;60.554;2023-07-13T01:17:21;97852.97;;;25.26;48.12
69187;BME280;56301;56.864;60.554;2023-07-13T01:19:43;97859.84;;;25.21;48.63
69187;BME280;56301;56.864;60.554;2023-07-13T01:22:08;97848.78;;;25.23;47.78
69187;BME280;56301;56.864;60.554;2023-07-13T01:24:31;97856.31;;;25.21;48.00
69187;BME280;56301;56.864;60.554;2023-07-13T01:26:53;97862.97;;;25.18;48.32
69187;BME280;56301;56.864;60.554;2023-07-13T01:29:15;97864.19;;;25.16;47.96
69187;BME280;56301;56.864;60.554;2023-07-13T01:31:38;97865.06;;;25.16;47.91
69187;BME280;56301;56.864;60.554;2023-07-13T01:34:01;97866.09;;;25.15;47.67
69187;BME280;56301;56.864;60.554;2023-07-13T01:36:23;97861.72;;;25.14;47.74
69187;BME280;56301;56.864;60.554;2023-07-13T01:38:46;97868.75;;;25.09;47.69
69187;BME280;56301;56.864;60.554;2023-07-13T01:41:09;97868.75;;;25.09;47.67
69187;BME280;56301;56.864;60.554;2023-07-13T01:43:32;97858.38;;;25.12;46.90
69187;BME280;56301;56.864;60.554;2023-07-13T01:45:55;97870.03;;;25.19;47.64
69187;BME280;56301;56.864;60.554;2023-07-13T01:48:18;97864.19;;;25.16;47.28
69187;BME280;56301;56.864;60.554;2023-07-13T01:50:40;97864.66;;;25.13;46.90
69187;BME280;56301;56.864;60.554;2023-07-13T01:53:03;97867.13;;;25.14;46.88
69187;BME280;56301;56.864;60.554;2023-07-13T01:55:27;97861.31;;;25.17;46.90
69187;BME280;56301;56.864;60.554;2023-07-13T01:57:49;97855.88;;;25.17;47.18
69187;BME280;56301;56.864;60.554;2023-07-13T02:00:12;97863.38;;;25.15;47.17
69187;BME280;56301;56.864;60.554;2023-07-13T02:02:39;97853.78;;;25.19;47.12
69187;BME280;56301;56.864;60.554;2023-07-13T02:05:01;97857.75;;;25.17;46.87
69187;BME280;56301;56.864;60.554;2023-07-13T02:07:23;97856.06;;;25.16;46.87
69187;BME280;56301;56.864;60.554;2023-07-13T02:09:46;97850.25;;;25.12;46.83
69187;BME280;56301;56.864;60.554;2023-07-13T02:12:08;97850.66;;;25.16;46.47
69187;BME280;56301;56.864;60.554;2023-07-13T02:14:31;97842.13;;;25.19;46.95
69187;BME280;56301;56.864;60.554;2023-07-13T02:16:53;97846.91;;;25.24;47.05
69187;BME280;56301;56.864;60.554;2023-07-13T02:19:16;97835.66;;;25.27;47.21
69187;BME280;56301;56.864;60.554;2023-07-13T02:21:38;97836.72;;;25.26;47.32
69187;BME280;56301;56.864;60.554;2023-07-13T02:24:01;97839.84;;;25.23;46.89
69187;BME280;56301;56.864;60.554;2023-07-13T02:26:23;97838.78;;;25.24;47.30
69187;BME280;56301;56.864;60.554;2023-07-13T02:28:46;97842.97;;;25.26;46.34
69187;BME280;56301;56.864;60.554;2023-07-13T02:31:09;97841.09;;;25.27;47.35
69187;BME280;56301;56.864;60.554;2023-07-13T02:33:32;97844.44;;;25.29;46.47
69187;BME280;56301;56.864;60.554;2023-07-13T02:35:54;97855.44;;;25.27;46.61
69187;BME280;56301;56.864;60.554;2023-07-13T02:38:16;97847.53;;;25.26;46.94
69187;BME280;56301;56.864;60.554;2023-07-13T02:40:39;97854.22;;;25.30;46.76
69187;BME280;56301;56.864;60.554;2023-07-13T02:43:02;97860.88;;;25.34;46.78
69187;BME280;56301;56.864;60.554;2023-07-13T02:45:27;97872.97;;;25.31;46.55
69187;BME280;56301;56.864;60.554;2023-07-13T02:47:50;97856.50;;;25.26;47.10
69187;BME280;56301;56.864;60.554;2023-07-13T02:50:13;97854.22;;;25.30;46.66
69187;BME280;56301;56.864;60.554;2023-07-13T02:52:36;97859.22;;;25.33;46.76
69187;BME280;56301;56.864;60.554;2023-07-13T02:54:58;97857.56;;;25.32;47.46
69187;BME280;56301;56.864;60.554;2023-07-13T02:57:21;97856.50;;;25.33;46.65
69187;BME280;56301;56.864;60.554;2023-07-13T02:59:43;97854.00;;;25.31;46.67
69187;BME280;56301;56.864;60.554;2023-07-13T03:02:05;97865.88;;;25.17;45.59
69187;BME280;56301;56.864;60.554;2023-07-13T03:04:28;97866.72;;;25.11;45.69
69187;BME280;56301;56.864;60.554;2023-07-13T03:06:51;97860.66;;;25.15;46.18
69187;BME280;56301;56.864;60.554;2023-07-13T03:09:13;97863.38;;;25.22;46.70
69187;BME280;56301;56.864;60.554;2023-07-13T03:11:39;97864.22;;;25.23;46.18
69187;BME280;56301;56.864;60.554;2023-07-13T03:14:14;97876.50;;;25.18;45.42
69187;BME280;56301;56.864;60.554;2023-07-13T03:16:38;97873.97;;;25.24;45.78
69187;BME280;56301;56.864;60.554;2023-07-13T03:19:00;97876.91;;;25.29;45.97
69187;BME280;56301;56.864;60.554;2023-07-13T03:21:23;97879.63;;;25.29;46.28
69187;BME280;56301;56.864;60.554;2023-07-13T03:23:47;97874.22;;;25.29;45.91
69187;BME280;56301;56.864;60.554;2023-07-13T03:26:15;97872.97;;;25.31;46.07
69187;BME280;56301;56.864;60.554;2023-07-13T03:28:38;97874.63;;;25.26;45.69
69187;BME280;56301;56.864;60.554;2023-07-13T03:31:12;97869.63;;;25.23;45.67
69187;BME280;56301;56.864;60.554;2023-07-13T03:33:34;97874.41;;;25.27;45.47
69187;BME280;56301;56.864;60.554;2023-07-13T03:35:57;97875.03;;;25.29;45.53
69187;BME280;56301;56.864;60.554;2023-07-13T03:38:21;97879.63;;;25.29;46.02
69187;BME280;56301;56.864;60.554;2023-07-13T03:40:43;97875.25;;;25.28;45.18
69187;BME280;56301;56.864;60.554;2023-07-13T03:43:06;97887.34;;;25.32;45.76
69187;BME280;56301;56.864;60.554;2023-07-13T03:45:29;97882.53;;;25.34;46.27
69187;BME280;56301;56.864;60.554;2023-07-13T03:47:51;97882.09;;;25.30;45.38
69187;BME280;56301;56.864;60.554;2023-07-13T03:50:14;97879.22;;;25.32;45.45
69187;BME280;56301;56.864;60.554;2023-07-13T03:52:37;97886.94;;;25.35;45.45
69187;BME280;56301;56.864;60.554;2023-07-13T03:54:59;97884.22;;;25.35;45.19
69187;BME280;56301;56.864;60.554;2023-07-13T03:57:22;97874.00;;;25.37;45.61
69187;BME280;56301;56.864;60.554;2023-07-13T03:59:44;97872.53;;;25.41;45.56
69187;BME280;56301;56.864;60.554;2023-07-13T04:02:07;97875.22;;;25.41;45.78
69187;BME280;56301;56.864;60.554;2023-07-13T04:04:30;97881.69;;;25.40;45.69
69187;BME280;56301;56.864;60.554;2023-07-13T04:06:52;97876.69;;;25.37;45.79
69187;BME280;56301;56.864;60.554;2023-07-13T04:09:15;97872.94;;;25.38;45.04
69187;BME280;56301;56.864;60.554;2023-07-13T04:11:38;97882.53;;;25.34;45.11
69187;BME280;56301;56.864;60.554;2023-07-13T04:14:02;97880.03;;;25.32;44.78
69187;BME280;56301;56.864;60.554;2023-07-13T04:16:25;97874.41;;;25.40;45.18
69187;BME280;56301;56.864;60.554;2023-07-13T04:18:48;97879.19;;;25.45;45.45
69187;BME280;56301;56.864;60.554;2023-07-13T04:21:11;97881.06;;;25.44;45.92
69187;BME280;56301;56.864;60.554;2023-07-13T04:23:34;97878.56;;;25.43;45.70
69187;BME280;56301;56.864;60.554;2023-07-13T04:25:56;97879.56;;;24.89;47.57
69187;BME280;56301;56.864;60.554;2023-07-13T04:28:20;97886.56;;;24.57;48.72
69187;BME280;56301;56.864;60.554;2023-07-13T04:30:43;97880.22;;;24.30;49.80
69187;BME280;56301;56.864;60.554;2023-07-13T04:33:06;97880.84;;;24.32;50.25
69187;BME280;56301;56.864;60.554;2023-07-13T04:35:28;97875.28;;;24.40;49.90
69187;BME280;56301;56.864;60.554;2023-07-13T04:37:51;97877.69;;;24.21;49.64
69187;BME280;56301;56.864;60.554;2023-07-13T04:40:13;97885.78;;;24.15;50.42
69187;BME280;56301;56.864;60.554;2023-07-13T04:42:36;97882.75;;;24.38;50.18
69187;BME280;56301;56.864;60.554;2023-07-13T04:44:58;97880.28;;;24.43;49.99
69187;BME280;56301;56.864;60.554;2023-07-13T04:47:21;97862.47;;;24.68;49.24
69187;BME280;56301;56.864;60.554;2023-07-13T04:49:44;97878.13;;;24.93;48.45
69187;BME280;56301;56.864;60.554;2023-07-13T04:52:07;97876.03;;;25.08;47.54
69187;BME280;56301;56.864;60.554;2023-07-13T04:54:29;97883.16;;;25.23;46.48
69187;BME280;56301;56.864;60.554;2023-07-13T04:56:51;97867.75;;;25.30;45.59
69187;BME280;56301;56.864;60.554;2023-07-13T04:59:14;97877.53;;;25.31;46.13
69187;BME280;56301;56.864;60.554;2023-07-13T05:01:36;97874.22;;;25.42;46.15
69187;BME280;56301;56.864;60.554;2023-07-13T05:03:59;97875.44;;;25.39;46.38
69187;BME280;56301;56.864;60.554;2023-07-13T05:06:21;97872.53;;;25.41;46.13
69187;BME280;56301;56.864;60.554;2023-07-13T05:08:44;97874.81;;;25.44;45.41
69187;BME280;56301;56.864;60.554;2023-07-13T05:11:06;97868.78;;;25.42;45.46
69187;BME280;56301;56.864;60.554;2023-07-13T05:13:29;97871.72;;;25.20;46.76
69187;BME280;56301;56.864;60.554;2023-07-13T05:15:55;97876.66;;;24.97;47.75
69187;BME280;56301;56.864;60.554;2023-07-13T05:18:18;97869.31;;;24.51;48.91
69187;BME280;56301;56.864;60.554;2023-07-13T05:20:40;97868.13;;;24.25;48.96
69187;BME280;56301;56.864;60.554;2023-07-13T05:23:03;97871.41;;;24.14;49.64
69187;BME280;56301;56.864;60.554;2023-07-13T05:25:25;97868.97;;;24.19;49.54
69187;BME280;56301;56.864;60.554;2023-07-13T05:27:48;97865.66;;;24.31;50.37
69187;BME280;56301;56.864;60.554;2023-07-13T05:30:10;97870.31;;;24.50;49.78
69187;BME280;56301;56.864;60.554;2023-07-13T05:32:33;97882.44;;;24.13;48.96
69187;BME280;56301;56.864;60.554;2023-07-13T05:34:55;97884.97;;;23.80;48.09
69187;BME280;56301;56.864;60.554;2023-07-13T05:37:17;97892.19;;;23.72;48.20
69187;BME280;56301;56.864;60.554;2023-07-13T05:39:40;97892.19;;;23.72;48.70
69187;BME280;56301;56.864;60.554;2023-07-13T05:42:02;97882.88;;;23.82;49.11
69187;BME280;56301;56.864;60.554;2023-07-13T05:44:25;97885.03;;;23.93;49.87
69187;BME280;56301;56.864;60.554;2023-07-13T05:46:47;97874.69;;;24.03;50.44
69187;BME280;56301;56.864;60.554;2023-07-13T05:49:10;97878.88;;;24.06;50.83
69187;BME280;56301;56.864;60.554;2023-07-13T05:51:32;97874.13;;;24.08;51.13
69187;BME280;56301;56.864;60.554;2023-07-13T05:53:55;97879.94;;;24.18;50.97
69187;BME280;56301;56.864;60.554;2023-07-13T05:56:18;97887.59;;;24.01;50.10
69187;BME280;56301;56.864;60.554;2023-07-13T05:58:40;97883.63;;;23.97;50.13
69187;BME280;56301;56.864;60.554;2023-07-13T06:01:04;97876.13;;;23.99;50.75
69187;BME280;56301;56.864;60.554;2023-07-13T06:03:26;97873.50;;;24.12;51.08
69187;BME280;56301;56.864;60.554;2023-07-13T06:05:49;97877.91;;;24.20;50.65
69187;BME280;56301;56.864;60.554;2023-07-13T06:08:11;97873.50;;;24.12;50.69
69187;BME280;56301;56.864;60.554;2023-07-13T06:10:34;97882.97;;;23.95;50.30
69187;BME280;56301;56.864;60.554;2023-07-13T06:12:57;97876.47;;;23.83;50.48
69187;BME280;56301;56.864;60.554;2023-07-13T06:15:19;97867.59;;;23.95;50.81
69187;BME280;56301;56.864;60.554;2023-07-13T06:17:42;97869.28;;;24.03;51.18
69187;BME280;56301;56.864;60.554;2023-07-13T06:20:05;97874.41;;;24.26;50.66
69187;BME280;56301;56.864;60.554;2023-07-13T06:22:28;97869.31;;;24.58;50.83
69187;BME280;56301;56.864;60.554;2023-07-13T06:24:51;97871.63;;;24.74;50.58
69187;BME280;56301;56.864;60.554;2023-07-13T06:27:14;97870.59;;;24.82;49.57
69187;BME280;56301;56.864;60.554;2023-07-13T06:29:36;97886.88;;;24.95;47.71
69187;BME280;56301;56.864;60.554;2023-07-13T06:31:59;97884.16;;;25.02;48.28
69187;BME280;56301;56.864;60.554;2023-07-13T06:34:22;97880.03;;;25.12;47.22
69187;BME280;56301;56.864;60.554;2023-07-13T06:36:44;97886.28;;;25.19;47.42
69187;BME280;56301;56.864;60.554;2023-07-13T06:39:07;97887.75;;;25.22;46.99
69187;BME280;56301;56.864;60.554;2023-07-13T06:41:29;97889.22;;;25.25;47.03
69187;BME280;56301;56.864;60.554;2023-07-13T06:43:53;97889.22;;;25.25;46.94
69187;BME280;56301;56.864;60.554;2023-07-13T06:46:16;97893.34;;;25.27;47.12
69187;BME280;56301;56.864;60.554;2023-07-13T06:48:39;97896.91;;;25.28;46.59
69187;BME280;56301;56.864;60.554;2023-07-13T06:51:01;97892.34;;;25.28;46.63
69187;BME280;56301;56.864;60.554;2023-07-13T06:53:24;97897.13;;;25.33;46.46
69187;BME280;56301;56.864;60.554;2023-07-13T06:55:47;97902.88;;;24.90;48.32
69187;BME280;56301;56.864;60.554;2023-07-13T06:58:09;97911.97;;;24.56;49.09
69187;BME280;56301;56.864;60.554;2023-07-13T07:00:32;97902.63;;;24.17;49.77
69187;BME280;56301;56.864;60.554;2023-07-13T07:02:54;97907.38;;;24.08;49.91
69187;BME280;56301;56.864;60.554;2023-07-13T07:05:16;97905.69;;;24.07;50.72
69187;BME280;56301;56.864;60.554;2023-07-13T07:07:39;97911.38;;;24.19;50.47
69187;BME280;56301;56.864;60.554;2023-07-13T07:10:02;97913.94;;;24.34;50.20
69187;BME280;56301;56.864;60.554;2023-07-13T07:12:24;97917.44;;;24.27;49.04
69187;BME280;56301;56.864;60.554;2023-07-13T07:14:47;97908.00;;;23.75;49.18
69187;BME280;56301;56.864;60.554;2023-07-13T07:17:09;97915.59;;;23.65;48.69
69187;BME280;56301;56.864;60.554;2023-07-13T07:19:32;97928.00;;;23.60;48.20
69187;BME280;56301;56.864;60.554;2023-07-13T07:21:54;97922.22;;;23.63;48.78
69187;BME280;56301;56.864;60.554;2023-07-13T07:24:17;97919.81;;;23.74;49.21
69187;BME280;56301;56.864;60.554;2023-07-13T07:26:39;97904.97;;;24.26;49.58
69187;BME280;56301;56.864;60.554;2023-07-13T07:29:01;97904.88;;;24.61;50.71
69187;BME280;56301;56.864;60.554;2023-07-13T07:31:24;97894.94;;;24.75;51.47
69187;BME280;56301;56.864;60.554;2023-07-13T07:33:46;97899.13;;;24.84;51.53
69187;BME280;56301;56.864;60.554;2023-07-13T07:36:09;97903.94;;;25.02;49.43
69187;BME280;56301;56.864;60.554;2023-07-13T07:38:31;97901.66;;;25.06;48.72
69187;BME280;56301;56.864;60.554;2023-07-13T07:40:54;97899.63;;;25.14;48.33
69187;BME280;56301;56.864;60.554;2023-07-13T07:43:16;97895.22;;;25.27;47.68
69187;BME280;56301;56.864;60.554;2023-07-13T07:45:39;97901.44;;;25.01;48.59
69187;BME280;56301;56.864;60.554;2023-07-13T07:48:02;97902.41;;;24.60;48.71
69187;BME280;56301;56.864;60.554;2023-07-13T07:50:27;97903.47;;;24.24;49.49
69187;BME280;56301;56.864;60.554;2023-07-13T07:52:50;97902.75;;;24.02;49.04
69187;BME280;56301;56.864;60.554;2023-07-13T07:55:13;97902.94;;;23.94;49.07
69187;BME280;56301;56.864;60.554;2023-07-13T07:57:35;97906.25;;;23.96;49.60
69187;BME280;56301;56.864;60.554;2023-07-13T07:59:58;97900.09;;;24.09;50.37
69187;BME280;56301;56.864;60.554;2023-07-13T08:02:20;97900.13;;;24.22;51.20
69187;BME280;56301;56.864;60.554;2023-07-13T08:04:43;97907.09;;;24.38;50.69
69187;BME280;56301;56.864;60.554;2023-07-13T08:07:06;97906.63;;;23.93;49.41
69187;BME280;56301;56.864;60.554;2023-07-13T08:09:28;97909.47;;;23.78;49.12
69187;BME280;56301;56.864;60.554;2023-07-13T08:11:51;97908.19;;;23.74;49.26
69187;BME280;56301;56.864;60.554;2023-07-13T08:14:13;97912.44;;;23.83;49.06
69187;BME280;56301;56.864;60.554;2023-07-13T08:16:35;97912.03;;;23.93;50.23
69187;BME280;56301;56.864;60.554;2023-07-13T08:18:58;97914.22;;;24.04;50.28
69187;BME280;56301;56.864;60.554;2023-07-13T08:21:21;97919.63;;;24.04;50.51
69187;BME280;56301;56.864;60.554;2023-07-13T08:23:43;97916.66;;;23.99;50.10
69187;BME280;56301;56.864;60.554;2023-07-13T08:26:06;97912.81;;;23.80;50.02
69187;BME280;56301;56.864;60.554;2023-07-13T08:28:28;97918.00;;;23.82;50.02
69187;BME280;56301;56.864;60.554;2023-07-13T08:30:51;97922.00;;;23.86;51.17
69187;BME280;56301;56.864;60.554;2023-07-13T08:33:13;97925.16;;;23.96;51.39
69187;BME280;56301;56.864;60.554;2023-07-13T08:35:36;97916.06;;;24.03;50.89
69187;BME280;56301;56.864;60.554;2023-07-13T08:37:58;97914.91;;;23.85;49.88
69187;BME280;56301;56.864;60.554;2023-07-13T08:40:23;97911.09;;;23.72;49.91
69187;BME280;56301;56.864;60.554;2023-07-13T08:42:48;97899.31;;;23.80;50.33
69187;BME280;56301;56.864;60.554;2023-07-13T08:47:44;97907.75;;;24.46;51.38
69187;BME280;56301;56.864;60.554;2023-07-13T08:50:16;97906.56;;;24.62;51.16
69187;BME280;56301;56.864;60.554;2023-07-13T08:52:40;97909.69;;;24.72;50.98
69187;BME280;56301;56.864;60.554;2023-07-13T08:55:11;97927.84;;;24.79;48.85
69187;BME280;56301;56.864;60.554;2023-07-13T08:57:33;97914.94;;;24.87;48.20
69187;BME280;56301;56.864;60.554;2023-07-13T08:59:56;97912.88;;;24.96;47.77
69187;BME280;56301;56.864;60.554;2023-07-13T09:04:51;97910.84;;;25.11;47.50
69187;BME280;56301;56.864;60.554;2023-07-13T09:09:50;97905.88;;;25.21;47.75
69187;BME280;56301;56.864;60.554;2023-07-13T09:12:19;97905.38;;;24.98;48.72
69187;BME280;56301;56.864;60.554;2023-07-13T09:14:47;97909.75;;;24.86;48.96
69187;BME280;56301;56.864;60.554;2023-07-13T09:17:18;97907.91;;;24.38;50.51
69187;BME280;56301;56.864;60.554;2023-07-13T09:19:40;97904.72;;;24.15;50.08
69187;BME280;56301;56.864;60.554;2023-07-13T09:22:04;97912.56;;;24.10;51.15
69187;BME280;56301;56.864;60.554;2023-07-13T09:26:54;97924.06;;;24.25;51.78
69187;BME280;56301;56.864;60.554;2023-07-13T09:29:23;97919.34;;;24.34;52.32
69187;BME280;56301;56.864;60.554;2023-07-13T09:31:50;97915.84;;;24.40;52.05
69187;BME280;56301;56.864;60.554;2023-07-13T09:34:15;97915.59;;;23.93;50.18
69187;BME280;56301;56.864;60.554;2023-07-13T09:36:38;97918.38;;;23.72;49.68
69187;BME280;56301;56.864;60.554;2023-07-13T09:44:29;97920.84;;;24.01;50.08
69187;BME280;56301;56.864;60.554;2023-07-13T09:46:52;97916.09;;;24.10;50.96
69187;BME280;56301;56.864;60.554;2023-07-13T09:49:16;97922.19;;;24.19;50.71
69187;BME280;56301;56.864;60.554;2023-07-13T09:51:40;97912.63;;;24.23;51.56
69187;BME280;56301;56.864;60.554;2023-07-13T09:54:03;97911.38;;;24.25;51.23
69187;BME280;56301;56.864;60.554;2023-07-13T09:56:28;97916.38;;;24.29;51.72
69187;BME280;56301;56.864;60.554;2023-07-13T09:58:51;97909.31;;;24.27;51.43
69187;BME280;56301;56.864;60.554;2023-07-13T10:01:14;97910.63;;;24.38;51.19
69187;BME280;56301;56.864;60.554;2023-07-13T10:03:36;97913.13;;;24.40;51.41
69187;BME280;56301;56.864;60.554;2023-07-13T10:06:16;97906.91;;;24.39;52.04
69187;BME280;56301;56.864;60.554;2023-07-13T10:08:38;97903.59;;;24.44;52.30
69187;BME280;56301;56.864;60.554;2023-07-13T10:11:01;97899.94;;;24.23;52.97
69187;BME280;56301;56.864;60.554;2023-07-13T10:13:25;97901.38;;;23.57;52.18
69187;BME280;56301;56.864;60.554;2023-07-13T10:15:48;97897.88;;;23.28;51.14
69187;BME280;56301;56.864;60.554;2023-07-13T10:18:11;97898.19;;;22.75;50.38
69187;BME280;56301;56.864;60.554;2023-07-13T10:20:33;97870.84;;;23.56;47.60
69187;BME280;56301;56.864;60.554;2023-07-13T10:23:02;97879.66;;;23.37;47.18
69187;BME280;56301;56.864;60.554;2023-07-13T10:25:27;97874.06;;;23.10;46.49
69187;BME280;56301;56.864;60.554;2023-07-13T10:27:51;97873.94;;;22.97;46.12
69187;BME280;56301;56.864;60.554;2023-07-13T10:30:27;97862.22;;;22.90;45.29
69187;BME280;56301;56.864;60.554;2023-07-13T10:32:52;97871.00;;;22.92;45.14
69187;BME280;56301;56.864;60.554;2023-07-13T10:35:15;97859.41;;;22.98;45.12
69187;BME280;56301;56.864;60.554;2023-07-13T10:37:47;97859.22;;;23.21;45.50
69187;BME280;56301;56.864;60.554;2023-07-13T10:40:16;97849.97;;;23.37;47.12
69187;BME280;56301;56.864;60.554;2023-07-13T10:42:41;97858.88;;;23.65;47.57
69187;BME280;56301;56.864;60.554;2023-07-13T10:45:20;97839.59;;;24.10;48.37
69187;BME280;56301;56.864;60.554;2023-07-13T10:47:43;97850.66;;;24.21;48.97
69187;BME280;56301;56.864;60.554;2023-07-13T10:50:08;97849.84;;;24.27;49.38
69187;BME280;56301;56.864;60.554;2023-07-13T10:52:41;97847.94;;;24.21;49.18
69187;BME280;56301;56.864;60.554;2023-07-13T10:55:04;97843.78;;;24.12;49.06
69187;BME280;56301;56.864;60.554;2023-07-13T10:57:26;97838.53;;;24.04;48.71
69187;BME280;56301;56.864;60.554;2023-07-13T11:00:10;97844.94;;;23.96;47.21
69187;BME280;56301;56.864;60.554;2023-07-13T11:02:31;97835.69;;;23.77;46.84
69187;BME280;56301;56.864;60.554;2023-07-13T11:04:54;97844.19;;;23.68;45.88
69187;BME280;56301;56.864;60.554;2023-07-13T11:07:51;97846.97;;;23.53;45.47
69187;BME280;56301;56.864;60.554;2023-07-13T11:10:02;97858.78;;;23.52;44.18
69187;BME280;56301;56.864;60.554;2023-07-13T11:12:27;97857.78;;;23.53;44.37
69187;BME280;56301;56.864;60.554;2023-07-13T11:19:50;97858.13;;;23.43;43.25
69187;BME280;56301;56.864;60.554;2023-07-13T11:22:15;97855.09;;;23.53;42.91
69187;BME280;56301;56.864;60.554;2023-07-13T11:24:48;97849.91;;;23.58;43.58
69187;BME280;56301;56.864;60.554;2023-07-13T11:27:30;97849.69;;;23.53;43.71
69187;BME280;56301;56.864;60.554;2023-07-13T11:30:06;97848.25;;;23.57;43.03
69187;BME280;56301;56.864;60.554;2023-07-13T11:32:30;97837.56;;;23.42;42.71
69187;BME280;56301;56.864;60.554;2023-07-13T11:34:53;97828.47;;;23.50;42.59
69187;BME280;56301;56.864;60.554;2023-07-13T11:37:16;97832.72;;;23.38;42.79
69187;BME280;56301;56.864;60.554;2023-07-13T11:39:41;97825.41;;;23.25;42.81
69187;BME280;56301;56.864;60.554;2023-07-13T11:42:05;97828.94;;;23.25;42.42
69187;BME280;56301;56.864;60.554;2023-07-13T11:44:29;97824.78;;;23.29;42.23
69187;BME280;56301;56.864;60.554;2023-07-13T11:46:53;97820.66;;;23.34;43.60
69187;BME280;56301;56.864;60.554;2023-07-13T11:49:16;97813.00;;;23.37;43.27
69187;BME280;56301;56.864;60.554;2023-07-13T11:51:39;97809.47;;;23.37;42.99
69187;BME280;56301;56.864;60.554;2023-07-13T11:54:24;97816.47;;;23.24;43.19
69187;BME280;56301;56.864;60.554;2023-07-13T11:56:46;97812.63;;;23.40;42.40
69187;BME280;56301;56.864;60.554;2023-07-13T11:59:10;97803.66;;;23.33;43.25
69187;BME280;56301;56.864;60.554;2023-07-13T12:01:34;97809.00;;;23.26;43.53
69187;BME280;56301;56.864;60.554;2023-07-13T12:03:59;97806.34;;;23.33;43.18
69187;BME280;56301;56.864;60.554;2023-07-13T12:06:27;97796.28;;;23.55;44.36
69187;BME280;56301;56.864;60.554;2023-07-13T12:08:50;97801.75;;;24.10;45.46
69187;BME280;56301;56.864;60.554;2023-07-13T12:11:16;97795.41;;;24.37;45.88
69187;BME280;56301;56.864;60.554;2023-07-13T12:13:39;97798.75;;;24.46;47.32
69187;BME280;56301;56.864;60.554;2023-07-13T12:16:01;97795.88;;;24.47;48.11
69187;BME280;56301;56.864;60.554;2023-07-13T12:18:29;97795.84;;;24.54;48.78
69187;BME280;56301;56.864;60.554;2023-07-13T12:20:52;97792.94;;;24.49;50.12
69187;BME280;56301;56.864;60.554;2023-07-13T12:23:24;97785.88;;;24.55;50.64
69187;BME280;56301;56.864;60.554;2023-07-13T12:25:47;97784.22;;;24.60;50.68
69187;BME280;56301;56.864;60.554;2023-07-13T12:28:28;97782.16;;;24.62;51.37
69187;BME280;56301;56.864;60.554;2023-07-13T12:30:52;97775.47;;;24.58;51.21
69187;BME280;56301;56.864;60.554;2023-07-13T12:33:19;97780.06;;;24.71;51.93
69187;BME280;56301;56.864;60.554;2023-07-13T12:35:46;97778.19;;;24.71;52.20
69187;BME280;56301;56.864;60.554;2023-07-13T12:38:09;97787.13;;;24.72;52.38
69187;BME280;56301;56.864;60.554;2023-07-13T12:40:33;97786.94;;;24.73;52.72
69187;BME280;56301;56.864;60.554;2023-07-13T12:42:56;97786.31;;;24.78;52.74
69187;BME280;56301;56.864;60.554;2023-07-13T12:45:23;97774.44;;;24.79;52.76
69187;BME280;56301;56.864;60.554;2023-07-13T12:47:47;97779.66;;;24.81;53.77
69187;BME280;56301;56.864;60.554;2023-07-13T12:50:17;97775.69;;;24.90;52.87
69187;BME280;56301;56.864;60.554;2023-07-13T12:52:40;97768.22;;;24.79;51.91